Terminal Aerodrome Forecast
Issued by NWS Newport/Morehead City, NC

Home | Current Version | Previous Version | Graphics & Text | Print | Product List | Glossary On
Versions: 1 2 3 4 5 6 7 8 9 10 11 12 13 14 15 16 17 18 19 20 21 22 23 24 25 26
995
FTUS42 KMHX 011726
TAFEWN
TAF
KEWN 011726Z 0118/0218 19008G17KT P6SM VCSH SCT025 BKN040
      TEMPO 0118/0120 5SM SHRA BKN030
     FM012200 19007KT P6SM BKN040
     FM020600 22005KT P6SM SCT007 BKN030
     FM021300 23009KT P6SM VCSH SCT025 BKN040=

USA.gov is the U.S. government's official web portal to all federal, state and local government web resources and services.